sensor_id;sensor_type;location;lat;lon;timestamp;P1;durP1;ratioP1;P2;durP2;ratioP2
15876;SDS011;8037;51.666;7.834;2024-03-23T00:54:02;6.00;;;1.93;;
15876;SDS011;8037;51.666;7.834;2024-03-23T00:56:28;6.40;;;2.20;;
15876;SDS011;8037;51.666;7.834;2024-03-23T00:58:54;5.40;;;1.27;;
15876;SDS011;8037;51.666;7.834;2024-03-23T01:01:20;5.23;;;1.83;;
15876;SDS011;8037;51.666;7.834;2024-03-23T01:03:46;3.43;;;1.50;;
15876;SDS011;8037;51.666;7.834;2024-03-23T01:06:12;2.80;;;1.33;;
15876;SDS011;8037;51.666;7.834;2024-03-23T01:08:38;6.43;;;1.30;;
15876;SDS011;8037;51.666;7.834;2024-03-23T01:11:04;5.80;;;1.33;;
15876;SDS011;8037;51.666;7.834;2024-03-23T01:13:29;6.60;;;2.27;;
15876;SDS011;8037;51.666;7.834;2024-03-23T01:15:56;3.43;;;1.20;;
15876;SDS011;8037;51.666;7.834;2024-03-23T01:18:22;2.50;;;1.03;;
15876;SDS011;8037;51.666;7.834;2024-03-23T01:20:49;10.50;;;1.20;;
15876;SDS011;8037;51.666;7.834;2024-03-23T01:23:15;8.63;;;1.40;;
15876;SDS011;8037;51.666;7.834;2024-03-23T01:25:41;2.43;;;1.00;;
15876;SDS011;8037;51.666;7.834;2024-03-23T01:28:07;5.33;;;1.63;;
15876;SDS011;8037;51.666;7.834;2024-03-23T01:30:36;2.00;;;1.03;;
15876;SDS011;8037;51.666;7.834;2024-03-23T01:33:02;0.87;;;0.80;;
15876;SDS011;8037;51.666;7.834;2024-03-23T01:35:28;7.40;;;1.90;;
15876;SDS011;8037;51.666;7.834;2024-03-23T01:37:54;1.87;;;1.00;;
15876;SDS011;8037;51.666;7.834;2024-03-23T01:40:20;3.93;;;1.23;;
15876;SDS011;8037;51.666;7.834;2024-03-23T01:42:55;3.23;;;1.07;;
15876;SDS011;8037;51.666;7.834;2024-03-23T01:45:22;1.43;;;1.00;;
15876;SDS011;8037;51.666;7.834;2024-03-23T01:47:48;3.53;;;0.97;;
15876;SDS011;8037;51.666;7.834;2024-03-23T01:50:15;1.40;;;0.87;;
15876;SDS011;8037;51.666;7.834;2024-03-23T01:52:41;7.77;;;1.20;;
15876;SDS011;8037;51.666;7.834;2024-03-23T01:55:07;4.57;;;1.50;;
15876;SDS011;8037;51.666;7.834;2024-03-23T01:57:33;4.93;;;1.77;;
15876;SDS011;8037;51.666;7.834;2024-03-23T01:59:58;1.20;;;0.80;;
15876;SDS011;8037;51.666;7.834;2024-03-23T02:02:24;5.67;;;0.97;;
15876;SDS011;8037;51.666;7.834;2024-03-23T02:04:50;2.50;;;0.97;;
15876;SDS011;8037;51.666;7.834;2024-03-23T02:07:16;1.50;;;0.77;;
15876;SDS011;8037;51.666;7.834;2024-03-23T02:09:42;2.83;;;1.20;;
15876;SDS011;8037;51.666;7.834;2024-03-23T02:12:09;1.23;;;1.00;;
15876;SDS011;8037;51.666;7.834;2024-03-23T02:14:35;9.53;;;1.67;;
15876;SDS011;8037;51.666;7.834;2024-03-23T02:17:01;7.93;;;1.40;;
15876;SDS011;8037;51.666;7.834;2024-03-23T02:19:27;0.83;;;0.60;;
15876;SDS011;8037;51.666;7.834;2024-03-23T02:21:52;0.50;;;0.50;;
15876;SDS011;8037;51.666;7.834;2024-03-23T02:24:18;1.73;;;1.27;;
15876;SDS011;8037;51.666;7.834;2024-03-23T02:26:44;8.93;;;1.40;;
15876;SDS011;8037;51.666;7.834;2024-03-23T02:29:13;1.87;;;1.00;;
15876;SDS011;8037;51.666;7.834;2024-03-23T02:31:39;1.37;;;0.90;;
15876;SDS011;8037;51.666;7.834;2024-03-23T02:34:05;5.13;;;0.70;;
15876;SDS011;8037;51.666;7.834;2024-03-23T02:36:31;4.10;;;0.80;;
15876;SDS011;8037;51.666;7.834;2024-03-23T02:38:57;13.83;;;1.37;;
15876;SDS011;8037;51.666;7.834;2024-03-23T02:41:22;2.27;;;2.10;;
15876;SDS011;8037;51.666;7.834;2024-03-23T02:43:49;4.90;;;3.93;;
15876;SDS011;8037;51.666;7.834;2024-03-23T02:46:15;5.00;;;3.13;;
15876;SDS011;8037;51.666;7.834;2024-03-23T02:48:41;7.13;;;2.70;;
15876;SDS011;8037;51.666;7.834;2024-03-23T02:51:07;4.50;;;2.30;;
15876;SDS011;8037;51.666;7.834;2024-03-23T02:53:33;4.67;;;2.40;;
15876;SDS011;8037;51.666;7.834;2024-03-23T02:55:59;1.07;;;0.87;;
15876;SDS011;8037;51.666;7.834;2024-03-23T02:58:25;4.50;;;1.80;;
15876;SDS011;8037;51.666;7.834;2024-03-23T03:00:51;7.17;;;2.37;;
15876;SDS011;8037;51.666;7.834;2024-03-23T03:03:17;3.60;;;2.07;;
15876;SDS011;8037;51.666;7.834;2024-03-23T03:05:42;10.43;;;2.60;;
15876;SDS011;8037;51.666;7.834;2024-03-23T03:08:08;1.90;;;1.53;;
15876;SDS011;8037;51.666;7.834;2024-03-23T03:10:34;2.37;;;1.90;;
15876;SDS011;8037;51.666;7.834;2024-03-23T03:13:01;12.23;;;2.57;;
15876;SDS011;8037;51.666;7.834;2024-03-23T03:15:27;7.20;;;2.77;;
15876;SDS011;8037;51.666;7.834;2024-03-23T03:17:53;5.33;;;1.13;;
15876;SDS011;8037;51.666;7.834;2024-03-23T03:20:19;2.67;;;1.90;;
15876;SDS011;8037;51.666;7.834;2024-03-23T03:22:46;4.10;;;1.77;;
15876;SDS011;8037;51.666;7.834;2024-03-23T03:25:13;6.20;;;1.77;;
15876;SDS011;8037;51.666;7.834;2024-03-23T03:27:39;2.23;;;1.60;;
15876;SDS011;8037;51.666;7.834;2024-03-23T03:30:05;4.87;;;2.03;;
15876;SDS011;8037;51.666;7.834;2024-03-23T03:32:33;4.10;;;1.83;;
15876;SDS011;8037;51.666;7.834;2024-03-23T03:34:59;2.33;;;1.50;;
15876;SDS011;8037;51.666;7.834;2024-03-23T03:37:25;6.33;;;1.30;;
15876;SDS011;8037;51.666;7.834;2024-03-23T03:39:51;7.43;;;1.53;;
15876;SDS011;8037;51.666;7.834;2024-03-23T03:42:17;5.23;;;2.00;;
15876;SDS011;8037;51.666;7.834;2024-03-23T03:44:43;4.80;;;2.23;;
15876;SDS011;8037;51.666;7.834;2024-03-23T03:47:09;5.40;;;1.70;;
15876;SDS011;8037;51.666;7.834;2024-03-23T03:49:34;1.90;;;1.17;;
15876;SDS011;8037;51.666;7.834;2024-03-23T03:52:00;4.03;;;1.57;;
15876;SDS011;8037;51.666;7.834;2024-03-23T03:54:27;5.67;;;1.50;;
15876;SDS011;8037;51.666;7.834;2024-03-23T03:56:53;8.80;;;1.10;;
15876;SDS011;8037;51.666;7.834;2024-03-23T03:59:18;1.57;;;1.30;;
15876;SDS011;8037;51.666;7.834;2024-03-23T04:01:45;3.50;;;1.63;;
15876;SDS011;8037;51.666;7.834;2024-03-23T04:04:11;7.83;;;2.10;;
15876;SDS011;8037;51.666;7.834;2024-03-23T04:06:37;4.07;;;2.30;;
15876;SDS011;8037;51.666;7.834;2024-03-23T04:09:03;3.17;;;1.70;;
15876;SDS011;8037;51.666;7.834;2024-03-23T04:11:31;3.27;;;1.53;;
15876;SDS011;8037;51.666;7.834;2024-03-23T04:13:57;5.07;;;1.80;;
15876;SDS011;8037;51.666;7.834;2024-03-23T04:16:29;3.77;;;2.37;;
15876;SDS011;8037;51.666;7.834;2024-03-23T04:18:55;5.67;;;1.73;;
15876;SDS011;8037;51.666;7.834;2024-03-23T04:21:24;2.50;;;1.30;;
15876;SDS011;8037;51.666;7.834;2024-03-23T04:23:50;6.27;;;1.77;;
15876;SDS011;8037;51.666;7.834;2024-03-23T04:26:15;2.53;;;1.40;;
15876;SDS011;8037;51.666;7.834;2024-03-23T04:28:41;1.87;;;1.77;;
15876;SDS011;8037;51.666;7.834;2024-03-23T04:31:07;4.90;;;3.63;;
15876;SDS011;8037;51.666;7.834;2024-03-23T04:33:33;11.80;;;3.60;;
15876;SDS011;8037;51.666;7.834;2024-03-23T04:35:59;14.03;;;4.97;;
15876;SDS011;8037;51.666;7.834;2024-03-23T04:38:26;4.80;;;2.90;;
15876;SDS011;8037;51.666;7.834;2024-03-23T04:40:58;3.80;;;2.00;;
15876;SDS011;8037;51.666;7.834;2024-03-23T04:43:27;2.30;;;1.97;;
15876;SDS011;8037;51.666;7.834;2024-03-23T04:45:53;4.73;;;1.87;;
15876;SDS011;8037;51.666;7.834;2024-03-23T04:48:20;7.93;;;1.20;;
15876;SDS011;8037;51.666;7.834;2024-03-23T04:50:47;5.00;;;1.40;;
15876;SDS011;8037;51.666;7.834;2024-03-23T04:53:13;1.80;;;1.20;;
15876;SDS011;8037;51.666;7.834;2024-03-23T04:55:39;4.83;;;1.50;;
15876;SDS011;8037;51.666;7.834;2024-03-23T04:58:05;5.50;;;1.33;;
15876;SDS011;8037;51.666;7.834;2024-03-23T05:00:31;4.20;;;1.67;;
15876;SDS011;8037;51.666;7.834;2024-03-23T05:02:57;3.10;;;1.53;;
15876;SDS011;8037;51.666;7.834;2024-03-23T05:05:23;2.57;;;1.50;;
15876;SDS011;8037;51.666;7.834;2024-03-23T05:07:48;4.40;;;1.50;;
15876;SDS011;8037;51.666;7.834;2024-03-23T05:10:14;4.73;;;1.23;;
15876;SDS011;8037;51.666;7.834;2024-03-23T05:12:41;2.70;;;1.00;;
15876;SDS011;8037;51.666;7.834;2024-03-23T05:15:07;7.40;;;0.93;;
15876;SDS011;8037;51.666;7.834;2024-03-23T05:17:33;8.23;;;2.50;;
15876;SDS011;8037;51.666;7.834;2024-03-23T05:19:59;3.03;;;1.47;;
15876;SDS011;8037;51.666;7.834;2024-03-23T05:22:25;6.63;;;1.53;;
15876;SDS011;8037;51.666;7.834;2024-03-23T05:24:52;3.40;;;1.27;;
15876;SDS011;8037;51.666;7.834;2024-03-23T05:27:21;2.13;;;1.57;;
15876;SDS011;8037;51.666;7.834;2024-03-23T05:29:48;1.97;;;0.93;;
15876;SDS011;8037;51.666;7.834;2024-03-23T05:32:14;7.23;;;1.53;;
15876;SDS011;8037;51.666;7.834;2024-03-23T05:34:40;5.97;;;1.60;;
15876;SDS011;8037;51.666;7.834;2024-03-23T05:37:06;5.57;;;1.53;;
15876;SDS011;8037;51.666;7.834;2024-03-23T05:39:31;2.07;;;1.33;;
15876;SDS011;8037;51.666;7.834;2024-03-23T05:41:57;2.67;;;1.20;;
15876;SDS011;8037;51.666;7.834;2024-03-23T05:44:23;1.33;;;1.23;;
15876;SDS011;8037;51.666;7.834;2024-03-23T05:46:49;3.87;;;0.90;;
15876;SDS011;8037;51.666;7.834;2024-03-23T05:49:15;10.23;;;1.83;;
15876;SDS011;8037;51.666;7.834;2024-03-23T05:51:43;12.43;;;1.60;;
15876;SDS011;8037;51.666;7.834;2024-03-23T05:54:08;1.43;;;1.33;;
15876;SDS011;8037;51.666;7.834;2024-03-23T05:56:34;6.90;;;1.60;;
15876;SDS011;8037;51.666;7.834;2024-03-23T05:59:00;10.17;;;1.90;;
15876;SDS011;8037;51.666;7.834;2024-03-23T06:01:28;1.83;;;1.70;;
15876;SDS011;8037;51.666;7.834;2024-03-23T06:03:54;3.90;;;1.40;;
15876;SDS011;8037;51.666;7.834;2024-03-23T06:06:20;2.30;;;1.63;;
15876;SDS011;8037;51.666;7.834;2024-03-23T06:08:46;5.57;;;1.63;;
15876;SDS011;8037;51.666;7.834;2024-03-23T06:11:12;3.87;;;1.83;;
15876;SDS011;8037;51.666;7.834;2024-03-23T06:13:38;4.00;;;1.40;;
15876;SDS011;8037;51.666;7.834;2024-03-23T06:16:04;6.07;;;1.73;;
15876;SDS011;8037;51.666;7.834;2024-03-23T06:18:30;13.13;;;2.27;;
15876;SDS011;8037;51.666;7.834;2024-03-23T06:20:56;2.80;;;1.70;;
15876;SDS011;8037;51.666;7.834;2024-03-23T06:23:22;3.93;;;1.87;;
15876;SDS011;8037;51.666;7.834;2024-03-23T06:25:48;4.13;;;1.33;;
15876;SDS011;8037;51.666;7.834;2024-03-23T06:28:14;5.67;;;2.30;;
15876;SDS011;8037;51.666;7.834;2024-03-23T06:30:40;6.13;;;2.00;;
15876;SDS011;8037;51.666;7.834;2024-03-23T06:33:06;5.23;;;2.47;;
15876;SDS011;8037;51.666;7.834;2024-03-23T06:35:32;2.23;;;2.13;;
15876;SDS011;8037;51.666;7.834;2024-03-23T06:37:58;7.20;;;2.50;;
15876;SDS011;8037;51.666;7.834;2024-03-23T06:40:24;12.90;;;3.40;;
15876;SDS011;8037;51.666;7.834;2024-03-23T06:42:50;3.73;;;2.77;;
15876;SDS011;8037;51.666;7.834;2024-03-23T06:45:16;13.60;;;4.30;;
15876;SDS011;8037;51.666;7.834;2024-03-23T06:47:47;13.67;;;2.83;;
15876;SDS011;8037;51.666;7.834;2024-03-23T06:50:13;8.20;;;4.67;;
15876;SDS011;8037;51.666;7.834;2024-03-23T06:52:39;10.07;;;4.03;;
15876;SDS011;8037;51.666;7.834;2024-03-23T06:55:05;6.27;;;4.67;;
15876;SDS011;8037;51.666;7.834;2024-03-23T06:57:31;15.53;;;4.93;;
15876;SDS011;8037;51.666;7.834;2024-03-23T06:59:57;25.57;;;4.93;;
15876;SDS011;8037;51.666;7.834;2024-03-23T07:02:22;17.03;;;4.97;;
15876;SDS011;8037;51.666;7.834;2024-03-23T07:04:48;7.70;;;4.57;;
15876;SDS011;8037;51.666;7.834;2024-03-23T07:07:14;15.90;;;5.27;;
15876;SDS011;8037;51.666;7.834;2024-03-23T07:09:40;6.50;;;4.00;;
15876;SDS011;8037;51.666;7.834;2024-03-23T07:12:06;12.63;;;4.00;;
15876;SDS011;8037;51.666;7.834;2024-03-23T07:14:32;7.80;;;4.43;;
15876;SDS011;8037;51.666;7.834;2024-03-23T07:16:58;6.40;;;4.17;;
15876;SDS011;8037;51.666;7.834;2024-03-23T07:19:24;12.20;;;4.67;;
15876;SDS011;8037;51.666;7.834;2024-03-23T07:21:50;14.60;;;4.97;;
15876;SDS011;8037;51.666;7.834;2024-03-23T07:24:16;5.80;;;3.73;;
15876;SDS011;8037;51.666;7.834;2024-03-23T07:26:42;9.60;;;6.10;;
15876;SDS011;8037;51.666;7.834;2024-03-23T07:29:08;11.20;;;5.10;;
15876;SDS011;8037;51.666;7.834;2024-03-23T07:31:34;7.87;;;4.70;;
15876;SDS011;8037;51.666;7.834;2024-03-23T07:34:00;9.30;;;5.47;;
15876;SDS011;8037;51.666;7.834;2024-03-23T07:36:26;19.23;;;4.67;;
15876;SDS011;8037;51.666;7.834;2024-03-23T07:38:52;7.53;;;3.80;;
15876;SDS011;8037;51.666;7.834;2024-03-23T07:41:19;5.37;;;4.60;;
15876;SDS011;8037;51.666;7.834;2024-03-23T07:43:45;9.63;;;4.43;;
15876;SDS011;8037;51.666;7.834;2024-03-23T07:46:11;8.13;;;4.20;;
15876;SDS011;8037;51.666;7.834;2024-03-23T07:48:38;13.97;;;4.00;;
15876;SDS011;8037;51.666;7.834;2024-03-23T07:53:34;7.43;;;4.67;;
15876;SDS011;8037;51.666;7.834;2024-03-23T07:56:05;8.30;;;4.10;;
15876;SDS011;8037;51.666;7.834;2024-03-23T07:58:31;6.13;;;3.90;;
15876;SDS011;8037;51.666;7.834;2024-03-23T08:01:03;10.30;;;4.50;;
15876;SDS011;8037;51.666;7.834;2024-03-23T08:03:29;6.47;;;3.27;;
15876;SDS011;8037;51.666;7.834;2024-03-23T08:05:55;4.17;;;3.70;;
15876;SDS011;8037;51.666;7.834;2024-03-23T08:08:22;10.37;;;4.63;;
15876;SDS011;8037;51.666;7.834;2024-03-23T08:10:51;16.00;;;3.47;;
15876;SDS011;8037;51.666;7.834;2024-03-23T08:13:17;13.13;;;4.13;;
15876;SDS011;8037;51.666;7.834;2024-03-23T08:15:44;5.90;;;3.20;;
15876;SDS011;8037;51.666;7.834;2024-03-23T08:18:13;6.70;;;3.60;;
15876;SDS011;8037;51.666;7.834;2024-03-23T08:20:42;5.17;;;3.17;;
15876;SDS011;8037;51.666;7.834;2024-03-23T08:23:08;4.27;;;2.10;;
15876;SDS011;8037;51.666;7.834;2024-03-23T08:25:34;7.43;;;3.77;;
15876;SDS011;8037;51.666;7.834;2024-03-23T08:28:00;6.80;;;2.43;;
15876;SDS011;8037;51.666;7.834;2024-03-23T08:30:27;4.20;;;2.53;;
15876;SDS011;8037;51.666;7.834;2024-03-23T08:32:54;21.67;;;4.27;;
15876;SDS011;8037;51.666;7.834;2024-03-23T08:35:20;1.83;;;1.70;;
15876;SDS011;8037;51.666;7.834;2024-03-23T08:37:46;8.47;;;2.77;;
15876;SDS011;8037;51.666;7.834;2024-03-23T08:40:12;5.37;;;2.30;;
15876;SDS011;8037;51.666;7.834;2024-03-23T08:42:38;5.10;;;2.67;;
15876;SDS011;8037;51.666;7.834;2024-03-23T08:45:04;11.23;;;2.43;;
15876;SDS011;8037;51.666;7.834;2024-03-23T08:47:33;6.50;;;2.50;;
15876;SDS011;8037;51.666;7.834;2024-03-23T08:50:00;6.23;;;2.80;;
15876;SDS011;8037;51.666;7.834;2024-03-23T08:52:25;9.10;;;2.73;;
15876;SDS011;8037;51.666;7.834;2024-03-23T08:54:53;3.63;;;2.67;;
15876;SDS011;8037;51.666;7.834;2024-03-23T08:57:20;7.27;;;2.27;;
15876;SDS011;8037;51.666;7.834;2024-03-23T08:59:46;4.93;;;2.10;;
15876;SDS011;8037;51.666;7.834;2024-03-23T09:02:12;4.73;;;1.30;;
15876;SDS011;8037;51.666;7.834;2024-03-23T09:04:38;9.70;;;2.40;;
15876;SDS011;8037;51.666;7.834;2024-03-23T09:07:04;5.70;;;1.77;;
15876;SDS011;8037;51.666;7.834;2024-03-23T09:09:30;1.77;;;1.50;;
15876;SDS011;8037;51.666;7.834;2024-03-23T09:11:56;1.83;;;1.50;;
15876;SDS011;8037;51.666;7.834;2024-03-23T09:14:22;1.90;;;1.43;;
15876;SDS011;8037;51.666;7.834;2024-03-23T09:16:51;1.70;;;1.60;;
15876;SDS011;8037;51.666;7.834;2024-03-23T09:19:17;6.83;;;1.87;;
15876;SDS011;8037;51.666;7.834;2024-03-23T09:21:43;4.53;;;1.70;;
15876;SDS011;8037;51.666;7.834;2024-03-23T09:24:09;8.00;;;2.50;;
15876;SDS011;8037;51.666;7.834;2024-03-23T09:26:35;3.13;;;1.67;;
15876;SDS011;8037;51.666;7.834;2024-03-23T09:29:01;10.10;;;1.63;;
15876;SDS011;8037;51.666;7.834;2024-03-23T09:31:26;2.83;;;1.57;;
15876;SDS011;8037;51.666;7.834;2024-03-23T09:33:52;7.93;;;2.17;;
15876;SDS011;8037;51.666;7.834;2024-03-23T09:36:18;8.60;;;2.30;;
15876;SDS011;8037;51.666;7.834;2024-03-23T09:38:44;5.50;;;2.30;;
15876;SDS011;8037;51.666;7.834;2024-03-23T09:41:10;5.77;;;1.80;;
15876;SDS011;8037;51.666;7.834;2024-03-23T09:43:36;2.10;;;1.90;;
15876;SDS011;8037;51.666;7.834;2024-03-23T09:46:02;2.20;;;1.97;;
15876;SDS011;8037;51.666;7.834;2024-03-23T09:48:29;4.63;;;1.47;;
15876;SDS011;8037;51.666;7.834;2024-03-23T09:50:55;3.23;;;2.17;;
15876;SDS011;8037;51.666;7.834;2024-03-23T09:53:21;5.80;;;1.33;;
15876;SDS011;8037;51.666;7.834;2024-03-23T09:55:47;8.23;;;2.07;;
15876;SDS011;8037;51.666;7.834;2024-03-23T09:58:14;2.00;;;1.37;;
15876;SDS011;8037;51.666;7.834;2024-03-23T10:00:40;5.63;;;1.80;;
15876;SDS011;8037;51.666;7.834;2024-03-23T10:03:06;4.70;;;2.20;;
15876;SDS011;8037;51.666;7.834;2024-03-23T10:05:33;3.10;;;1.73;;
15876;SDS011;8037;51.666;7.834;2024-03-23T10:08:00;7.70;;;2.10;;
15876;SDS011;8037;51.666;7.834;2024-03-23T10:10:26;3.93;;;1.80;;
15876;SDS011;8037;51.666;7.834;2024-03-23T10:12:52;2.77;;;1.50;;
15876;SDS011;8037;51.666;7.834;2024-03-23T10:15:19;4.30;;;1.20;;
15876;SDS011;8037;51.666;7.834;2024-03-23T10:17:45;7.37;;;1.87;;
15876;SDS011;8037;51.666;7.834;2024-03-23T10:20:11;3.90;;;1.83;;
15876;SDS011;8037;51.666;7.834;2024-03-23T10:22:37;5.43;;;2.13;;
15876;SDS011;8037;51.666;7.834;2024-03-23T10:25:07;3.70;;;2.63;;
15876;SDS011;8037;51.666;7.834;2024-03-23T10:27:34;11.23;;;3.33;;
15876;SDS011;8037;51.666;7.834;2024-03-23T10:30:09;4.60;;;2.17;;
15876;SDS011;8037;51.666;7.834;2024-03-23T10:32:36;4.03;;;1.60;;
15876;SDS011;8037;51.666;7.834;2024-03-23T10:37:41;2.70;;;1.63;;
15876;SDS011;8037;51.666;7.834;2024-03-23T10:40:09;2.70;;;1.63;;
15876;SDS011;8037;51.666;7.834;2024-03-23T10:42:36;4.03;;;1.40;;
15876;SDS011;8037;51.666;7.834;2024-03-23T10:45:03;3.53;;;1.87;;
15876;SDS011;8037;51.666;7.834;2024-03-23T10:47:30;0.73;;;0.73;;
15876;SDS011;8037;51.666;7.834;2024-03-23T10:49:56;8.13;;;1.10;;
15876;SDS011;8037;51.666;7.834;2024-03-23T10:52:22;0.97;;;0.97;;
15876;SDS011;8037;51.666;7.834;2024-03-23T10:54:48;4.10;;;1.90;;
15876;SDS011;8037;51.666;7.834;2024-03-23T10:57:27;9.63;;;1.23;;
15876;SDS011;8037;51.666;7.834;2024-03-23T10:59:54;4.77;;;1.30;;
15876;SDS011;8037;51.666;7.834;2024-03-23T11:02:21;1.10;;;1.00;;
15876;SDS011;8037;51.666;7.834;2024-03-23T11:04:47;4.30;;;1.30;;
15876;SDS011;8037;51.666;7.834;2024-03-23T11:07:28;4.60;;;0.97;;
15876;SDS011;8037;51.666;7.834;2024-03-23T11:09:55;2.60;;;1.00;;
15876;SDS011;8037;51.666;7.834;2024-03-23T11:14:48;26.23;;;14.97;;
15876;SDS011;8037;51.666;7.834;2024-03-23T11:17:18;9.37;;;4.13;;
15876;SDS011;8037;51.666;7.834;2024-03-23T11:19:44;3.40;;;1.67;;
15876;SDS011;8037;51.666;7.834;2024-03-23T11:22:10;1.47;;;1.27;;
15876;SDS011;8037;51.666;7.834;2024-03-23T11:24:36;18.63;;;1.00;;
15876;SDS011;8037;51.666;7.834;2024-03-23T11:27:05;2.50;;;1.30;;
15876;SDS011;8037;51.666;7.834;2024-03-23T11:29:41;1.63;;;0.80;;
15876;SDS011;8037;51.666;7.834;2024-03-23T11:32:07;1.63;;;0.93;;
15876;SDS011;8037;51.666;7.834;2024-03-23T11:34:38;0.80;;;0.50;;
15876;SDS011;8037;51.666;7.834;2024-03-23T11:37:04;0.63;;;0.60;;
15876;SDS011;8037;51.666;7.834;2024-03-23T11:39:31;1.00;;;0.70;;
15876;SDS011;8037;51.666;7.834;2024-03-23T11:41:57;3.87;;;1.77;;
15876;SDS011;8037;51.666;7.834;2024-03-23T11:44:23;5.33;;;3.17;;
15876;SDS011;8037;51.666;7.834;2024-03-23T11:46:50;1.23;;;0.80;;
15876;SDS011;8037;51.666;7.834;2024-03-23T11:51:47;4.07;;;1.20;;
15876;SDS011;8037;51.666;7.834;2024-03-23T11:54:13;1.60;;;0.80;;
15876;SDS011;8037;51.666;7.834;2024-03-23T11:56:38;3.83;;;0.90;;
15876;SDS011;8037;51.666;7.834;2024-03-23T11:59:04;0.80;;;0.40;;
15876;SDS011;8037;51.666;7.834;2024-03-23T12:01:31;0.83;;;0.40;;
15876;SDS011;8037;51.666;7.834;2024-03-23T12:03:58;3.30;;;0.43;;
15876;SDS011;8037;51.666;7.834;2024-03-23T12:06:24;0.60;;;0.60;;
15876;SDS011;8037;51.666;7.834;2024-03-23T12:08:50;1.73;;;1.30;;
15876;SDS011;8037;51.666;7.834;2024-03-23T12:11:16;0.70;;;0.70;;
15876;SDS011;8037;51.666;7.834;2024-03-23T12:13:43;1.10;;;0.60;;
15876;SDS011;8037;51.666;7.834;2024-03-23T12:16:11;0.40;;;0.40;;
15876;SDS011;8037;51.666;7.834;2024-03-23T12:18:39;0.50;;;0.30;;
15876;SDS011;8037;51.666;7.834;2024-03-23T12:21:05;0.50;;;0.50;;
15876;SDS011;8037;51.666;7.834;2024-03-23T12:23:32;0.73;;;0.40;;
15876;SDS011;8037;51.666;7.834;2024-03-23T12:25:58;0.60;;;0.60;;
15876;SDS011;8037;51.666;7.834;2024-03-23T12:28:24;1.83;;;0.80;;
15876;SDS011;8037;51.666;7.834;2024-03-23T12:30:50;2.87;;;1.00;;
15876;SDS011;8037;51.666;7.834;2024-03-23T12:33:17;4.83;;;0.80;;
15876;SDS011;8037;51.666;7.834;2024-03-23T12:35:43;1.03;;;0.90;;
15876;SDS011;8037;51.666;7.834;2024-03-23T12:38:09;3.10;;;0.50;;
15876;SDS011;8037;51.666;7.834;2024-03-23T12:40:35;1.33;;;0.80;;
15876;SDS011;8037;51.666;7.834;2024-03-23T12:43:01;3.70;;;0.90;;
15876;SDS011;8037;51.666;7.834;2024-03-23T12:45:27;1.70;;;0.80;;
15876;SDS011;8037;51.666;7.834;2024-03-23T12:47:53;4.10;;;1.10;;
15876;SDS011;8037;51.666;7.834;2024-03-23T12:50:20;4.47;;;0.97;;
15876;SDS011;8037;51.666;7.834;2024-03-23T12:52:46;2.83;;;1.10;;
15876;SDS011;8037;51.666;7.834;2024-03-23T12:55:12;2.77;;;1.43;;
15876;SDS011;8037;51.666;7.834;2024-03-23T12:57:37;3.03;;;1.43;;
15876;SDS011;8037;51.666;7.834;2024-03-23T13:00:04;2.03;;;1.70;;
15876;SDS011;8037;51.666;7.834;2024-03-23T13:02:31;4.20;;;1.60;;
15876;SDS011;8037;51.666;7.834;2024-03-23T13:04:59;3.00;;;1.10;;
15876;SDS011;8037;51.666;7.834;2024-03-23T13:07:25;2.10;;;1.60;;
15876;SDS011;8037;51.666;7.834;2024-03-23T13:09:52;2.20;;;1.10;;
15876;SDS011;8037;51.666;7.834;2024-03-23T13:12:18;1.00;;;1.00;;
15876;SDS011;8037;51.666;7.834;2024-03-23T13:14:45;1.07;;;1.07;;
15876;SDS011;8037;51.666;7.834;2024-03-23T13:17:11;2.30;;;1.80;;
15876;SDS011;8037;51.666;7.834;2024-03-23T13:19:37;3.30;;;1.27;;
15876;SDS011;8037;51.666;7.834;2024-03-23T13:22:03;4.20;;;1.40;;
15876;SDS011;8037;51.666;7.834;2024-03-23T13:24:29;3.50;;;1.10;;
15876;SDS011;8037;51.666;7.834;2024-03-23T13:26:56;3.93;;;1.03;;
15876;SDS011;8037;51.666;7.834;2024-03-23T13:29:22;5.30;;;1.77;;
15876;SDS011;8037;51.666;7.834;2024-03-23T13:31:49;11.20;;;2.07;;
15876;SDS011;8037;51.666;7.834;2024-03-23T13:34:15;4.00;;;1.20;;
15876;SDS011;8037;51.666;7.834;2024-03-23T13:36:41;7.30;;;2.80;;
15876;SDS011;8037;51.666;7.834;2024-03-23T13:39:08;1.23;;;0.90;;
15876;SDS011;8037;51.666;7.834;2024-03-23T13:41:44;3.77;;;2.40;;
15876;SDS011;8037;51.666;7.834;2024-03-23T13:44:10;8.30;;;3.97;;
15876;SDS011;8037;51.666;7.834;2024-03-23T13:46:36;6.00;;;3.53;;
15876;SDS011;8037;51.666;7.834;2024-03-23T13:49:03;2.33;;;1.90;;
15876;SDS011;8037;51.666;7.834;2024-03-23T13:51:29;4.93;;;1.87;;
15876;SDS011;8037;51.666;7.834;2024-03-23T13:53:55;2.63;;;1.50;;
15876;SDS011;8037;51.666;7.834;2024-03-23T13:56:21;14.43;;;2.33;;
15876;SDS011;8037;51.666;7.834;2024-03-23T13:58:48;6.43;;;2.03;;
15876;SDS011;8037;51.666;7.834;2024-03-23T14:01:14;1.00;;;1.00;;
15876;SDS011;8037;51.666;7.834;2024-03-23T14:03:40;1.87;;;0.60;;
15876;SDS011;8037;51.666;7.834;2024-03-23T14:06:07;1.57;;;1.47;;
15876;SDS011;8037;51.666;7.834;2024-03-23T14:08:33;1.63;;;0.83;;
15876;SDS011;8037;51.666;7.834;2024-03-23T14:11:01;1.73;;;0.60;;
15876;SDS011;8037;51.666;7.834;2024-03-23T14:13:28;0.90;;;0.90;;
15876;SDS011;8037;51.666;7.834;2024-03-23T14:15:54;4.73;;;1.13;;
15876;SDS011;8037;51.666;7.834;2024-03-23T14:18:20;5.60;;;1.30;;
15876;SDS011;8037;51.666;7.834;2024-03-23T14:20:49;2.77;;;1.07;;
15876;SDS011;8037;51.666;7.834;2024-03-23T14:23:16;0.60;;;0.60;;
15876;SDS011;8037;51.666;7.834;2024-03-23T14:25:42;3.60;;;0.87;;
15876;SDS011;8037;51.666;7.834;2024-03-23T14:28:08;5.67;;;1.17;;
15876;SDS011;8037;51.666;7.834;2024-03-23T14:30:39;0.80;;;0.80;;
15876;SDS011;8037;51.666;7.834;2024-03-23T14:33:05;0.60;;;0.60;;
15876;SDS011;8037;51.666;7.834;2024-03-23T14:35:31;3.57;;;2.77;;
15876;SDS011;8037;51.666;7.834;2024-03-23T14:37:58;0.93;;;0.70;;
15876;SDS011;8037;51.666;7.834;2024-03-23T14:40:24;3.57;;;0.90;;
15876;SDS011;8037;51.666;7.834;2024-03-23T14:42:52;1.83;;;0.80;;
15876;SDS011;8037;51.666;7.834;2024-03-23T14:45:18;3.30;;;0.90;;
15876;SDS011;8037;51.666;7.834;2024-03-23T14:47:44;1.60;;;1.20;;
15876;SDS011;8037;51.666;7.834;2024-03-23T14:50:10;10.67;;;2.43;;
15876;SDS011;8037;51.666;7.834;2024-03-23T14:52:40;10.00;;;4.53;;
15876;SDS011;8037;51.666;7.834;2024-03-23T14:55:06;12.07;;;3.60;;
15876;SDS011;8037;51.666;7.834;2024-03-23T14:57:33;5.97;;;3.20;;
15876;SDS011;8037;51.666;7.834;2024-03-23T15:00:00;2.20;;;2.00;;
15876;SDS011;8037;51.666;7.834;2024-03-23T15:02:25;7.67;;;2.47;;
15876;SDS011;8037;51.666;7.834;2024-03-23T15:04:53;3.87;;;2.73;;
15876;SDS011;8037;51.666;7.834;2024-03-23T15:07:19;7.47;;;2.73;;
15876;SDS011;8037;51.666;7.834;2024-03-23T15:09:45;2.17;;;1.13;;
15876;SDS011;8037;51.666;7.834;2024-03-23T15:12:10;1.53;;;0.87;;
15876;SDS011;8037;51.666;7.834;2024-03-23T15:14:36;2.30;;;0.83;;
15876;SDS011;8037;51.666;7.834;2024-03-23T15:17:02;1.43;;;1.33;;
15876;SDS011;8037;51.666;7.834;2024-03-23T15:19:32;1.10;;;1.00;;
15876;SDS011;8037;51.666;7.834;2024-03-23T15:21:58;2.10;;;1.20;;
15876;SDS011;8037;51.666;7.834;2024-03-23T15:24:24;6.37;;;1.53;;
15876;SDS011;8037;51.666;7.834;2024-03-23T15:26:50;1.33;;;0.77;;
15876;SDS011;8037;51.666;7.834;2024-03-23T15:29:17;1.87;;;1.10;;
15876;SDS011;8037;51.666;7.834;2024-03-23T15:31:43;2.43;;;1.03;;
15876;SDS011;8037;51.666;7.834;2024-03-23T15:34:11;1.27;;;1.17;;
15876;SDS011;8037;51.666;7.834;2024-03-23T15:36:37;1.47;;;0.90;;
15876;SDS011;8037;51.666;7.834;2024-03-23T15:39:05;1.23;;;1.13;;
15876;SDS011;8037;51.666;7.834;2024-03-23T15:41:31;1.87;;;0.90;;
15876;SDS011;8037;51.666;7.834;2024-03-23T15:43:59;2.57;;;0.90;;
15876;SDS011;8037;51.666;7.834;2024-03-23T15:46:25;2.07;;;1.00;;
15876;SDS011;8037;51.666;7.834;2024-03-23T15:48:51;4.70;;;1.20;;
15876;SDS011;8037;51.666;7.834;2024-03-23T15:51:16;0.77;;;0.60;;
15876;SDS011;8037;51.666;7.834;2024-03-23T15:53:45;1.43;;;1.13;;
15876;SDS011;8037;51.666;7.834;2024-03-23T15:56:11;0.90;;;0.80;;
15876;SDS011;8037;51.666;7.834;2024-03-23T15:58:38;5.93;;;1.03;;